createdAt,value
2023-05-31T00:01:42.900Z,5.10
2023-05-31T00:04:13.220Z,4.75
2023-05-31T00:06:42.806Z,4.53
2023-05-31T00:09:12.354Z,4.62
2023-05-31T00:11:42.210Z,4.08
2023-05-31T00:14:12.623Z,4.40
2023-05-31T00:17:07.484Z,4.70
2023-05-31T00:19:13.862Z,4.53
2023-05-31T00:21:49.498Z,4.42
2023-05-31T00:24:19.869Z,4.30
2023-05-31T00:26:50.354Z,4.80
2023-05-31T00:29:19.949Z,4.72
2023-05-31T00:31:49.472Z,4.33
2023-05-31T00:34:18.987Z,4.72
2023-05-31T00:36:49.340Z,4.67
2023-05-31T00:39:19.431Z,4.58
2023-05-31T00:41:49.558Z,4.37
2023-05-31T00:44:19.084Z,4.30
2023-05-31T00:46:51.415Z,4.35
2023-05-31T00:49:21.167Z,4.20
2023-05-31T00:51:51.937Z,4.30
2023-05-31T00:54:21.670Z,4.05
2023-05-31T00:56:52.060Z,4.30
2023-05-31T00:59:22.086Z,3.87
2023-05-31T01:01:53.629Z,3.83
2023-05-31T01:04:24.566Z,4.37
2023-05-31T01:06:54.466Z,4.08
2023-05-31T01:09:25.222Z,3.83
2023-05-31T01:12:13.463Z,4.00
2023-05-31T01:14:46.042Z,4.20
2023-05-31T01:17:26.227Z,4.15
2023-05-31T01:19:58.342Z,4.25
2023-05-31T01:22:34.167Z,4.20
2023-05-31T01:25:24.827Z,4.10
2023-05-31T01:27:58.192Z,4.72
2023-05-31T01:30:32.979Z,3.98
2023-05-31T01:33:04.969Z,3.80
2023-05-31T01:35:34.561Z,3.77
2023-05-31T01:38:04.216Z,3.75
2023-05-31T01:40:37.868Z,4.10
2023-05-31T01:43:10.817Z,4.37
2023-05-31T01:45:41.466Z,4.05
2023-05-31T01:48:13.945Z,4.15
2023-05-31T01:50:46.686Z,3.85
2023-05-31T01:53:16.333Z,4.30
2023-05-31T01:55:49.205Z,4.03
2023-05-31T01:58:21.624Z,3.75
2023-05-31T02:00:52.199Z,4.35
2023-05-31T02:03:22.456Z,4.08
2023-05-31T02:06:02.192Z,4.27
2023-05-31T02:08:33.219Z,4.03
2023-05-31T02:11:04.148Z,4.05
2023-05-31T02:13:34.158Z,4.40
2023-05-31T02:16:07.834Z,4.42
2023-05-31T02:18:38.247Z,3.92
2023-05-31T02:21:09.212Z,4.15
2023-05-31T02:25:49.414Z,4.35
2023-05-31T02:28:20.312Z,4.20
2023-05-31T02:31:02.066Z,4.13
2023-05-31T02:33:32.694Z,4.33
2023-05-31T02:36:03.721Z,4.40
2023-05-31T02:38:33.543Z,4.08
2023-05-31T02:41:03.386Z,4.37
2023-05-31T02:43:33.931Z,4.53
2023-05-31T02:46:03.641Z,3.95
2023-05-31T02:48:33.362Z,4.22
2023-05-31T02:51:03.859Z,4.78
2023-05-31T02:53:52.177Z,4.42
2023-05-31T02:56:24.979Z,4.90
2023-05-31T02:59:12.700Z,4.70
2023-05-31T03:01:44.385Z,4.75
2023-05-31T03:04:15.658Z,4.43
2023-05-31T03:06:45.908Z,4.60
2023-05-31T03:09:17.422Z,4.28
2023-05-31T03:11:48.493Z,4.15
2023-05-31T03:14:19.950Z,4.70
2023-05-31T03:16:52.071Z,3.87
2023-05-31T03:19:22.465Z,4.30
2023-05-31T03:21:54.012Z,4.23
2023-05-31T03:24:25.948Z,4.83
2023-05-31T03:26:56.190Z,4.87
2023-05-31T03:29:27.248Z,4.50
2023-05-31T03:31:57.125Z,5.08
2023-05-31T03:34:27.692Z,4.87
2023-05-31T03:36:58.909Z,4.65
2023-05-31T03:39:33.085Z,4.40
2023-05-31T03:42:03.341Z,4.80
2023-05-31T03:44:32.996Z,4.70
2023-05-31T03:47:02.514Z,5.08
2023-05-31T03:49:34.623Z,5.00
2023-05-31T03:52:04.279Z,5.58
2023-05-31T03:54:35.869Z,5.12
2023-05-31T03:57:05.911Z,5.85
2023-05-31T03:59:37.366Z,5.53
2023-05-31T04:02:07.264Z,6.15
2023-05-31T04:04:38.406Z,5.80
2023-05-31T04:07:08.608Z,5.60
2023-05-31T04:09:38.251Z,5.42
2023-05-31T04:12:08.928Z,5.92
2023-05-31T04:14:38.455Z,5.40
2023-05-31T04:17:11.829Z,5.93
2023-05-31T04:19:41.703Z,4.95
2023-05-31T04:22:11.684Z,5.70
2023-05-31T04:24:43.570Z,5.40
2023-05-31T04:27:15.695Z,5.65
2023-05-31T04:29:48.232Z,5.60
2023-05-31T04:32:17.864Z,5.28
2023-05-31T04:34:49.402Z,5.45
2023-05-31T04:37:20.412Z,6.15
2023-05-31T04:39:50.039Z,5.33
2023-05-31T04:42:19.696Z,5.03
2023-05-31T04:44:50.651Z,5.15
2023-05-31T04:47:21.228Z,5.65
2023-05-31T04:49:54.704Z,5.70
2023-05-31T04:52:23.774Z,6.10
2023-05-31T04:54:53.433Z,6.00
2023-05-31T04:57:29.092Z,4.95
2023-05-31T05:00:00.893Z,5.42
2023-05-31T05:02:31.783Z,4.87
2023-05-31T05:05:02.297Z,5.58
2023-05-31T05:07:31.926Z,5.37
2023-05-31T05:10:02.119Z,5.42
2023-05-31T05:12:33.303Z,5.58
2023-05-31T05:15:04.171Z,6.42
2023-05-31T05:17:33.864Z,5.87
2023-05-31T05:20:06.057Z,6.15
2023-05-31T05:22:35.779Z,5.67
2023-05-31T05:25:05.720Z,5.87
2023-05-31T05:27:36.188Z,5.42
2023-05-31T05:30:08.727Z,6.28
2023-05-31T05:32:38.510Z,6.17
2023-05-31T05:35:10.081Z,6.62
2023-05-31T05:37:39.746Z,5.62
2023-05-31T05:40:11.629Z,6.15
2023-05-31T05:42:41.386Z,5.87
2023-05-31T05:45:12.712Z,6.10
2023-05-31T05:47:44.508Z,6.40
2023-05-31T05:50:15.699Z,6.45
2023-05-31T05:52:45.927Z,6.45
2023-05-31T05:55:15.517Z,6.37
2023-05-31T05:57:45.161Z,6.90
2023-05-31T06:00:20.272Z,6.40
2023-05-31T06:02:50.531Z,6.20
2023-05-31T06:05:22.672Z,6.30
2023-05-31T06:07:52.322Z,7.40
2023-05-31T06:10:21.917Z,6.72
2023-05-31T06:12:51.626Z,6.27
2023-05-31T06:15:22.627Z,6.03
2023-05-31T06:17:53.752Z,5.20
2023-05-31T06:20:25.578Z,6.47
2023-05-31T06:22:56.106Z,6.00
2023-05-31T06:25:26.378Z,6.30
2023-05-31T06:27:57.527Z,5.80
2023-05-31T06:30:29.533Z,7.35
2023-05-31T06:32:59.177Z,5.60
2023-05-31T06:35:29.097Z,6.12
2023-05-31T06:37:59.064Z,6.45
2023-05-31T06:40:28.731Z,7.03
2023-05-31T06:42:58.470Z,6.13
2023-05-31T06:45:29.708Z,7.70
2023-05-31T06:48:12.760Z,5.97
2023-05-31T06:50:53.286Z,6.23
2023-05-31T06:53:40.637Z,6.12
2023-05-31T06:56:11.888Z,7.08
2023-05-31T06:58:43.770Z,7.15
2023-05-31T07:01:14.555Z,7.23
2023-05-31T07:03:44.724Z,7.65
2023-05-31T07:06:14.561Z,6.55
2023-05-31T07:08:48.268Z,6.75
2023-05-31T07:11:19.831Z,7.37
2023-05-31T07:13:51.463Z,8.35
2023-05-31T07:16:21.599Z,8.13
2023-05-31T07:18:51.379Z,8.63
2023-05-31T07:21:21.061Z,8.30
2023-05-31T07:23:51.545Z,8.50
2023-05-31T07:26:21.757Z,9.20
2023-05-31T07:28:53.210Z,10.65
2023-05-31T07:31:25.051Z,10.38
2023-05-31T07:33:55.337Z,9.30
2023-05-31T07:36:28.112Z,10.20
2023-05-31T07:38:58.222Z,8.50
2023-05-31T07:41:29.200Z,9.50
2023-05-31T07:44:00.547Z,9.38
2023-05-31T07:46:30.130Z,9.68
2023-05-31T07:48:59.694Z,9.07
2023-05-31T07:51:33.868Z,9.33
2023-05-31T07:54:08.160Z,9.73
2023-05-31T07:56:37.749Z,10.95
2023-05-31T07:59:08.041Z,10.32
2023-05-31T08:01:38.330Z,10.08
2023-05-31T08:04:10.050Z,9.98
2023-05-31T08:06:39.700Z,10.58
2023-05-31T08:09:09.347Z,10.82
2023-05-31T08:11:40.314Z,11.25
2023-05-31T08:14:09.917Z,11.28
2023-05-31T08:16:49.316Z,10.70
2023-05-31T08:19:18.970Z,10.88
2023-05-31T08:21:48.636Z,10.10
2023-05-31T08:24:20.258Z,11.03
2023-05-31T08:26:51.498Z,11.88
2023-05-31T08:29:21.278Z,12.55
2023-05-31T08:31:51.048Z,12.35
2023-05-31T08:34:21.060Z,11.83
2023-05-31T08:36:50.680Z,12.23
2023-05-31T08:39:20.492Z,11.35
2023-05-31T08:41:55.954Z,11.08
2023-05-31T08:44:26.484Z,11.40
2023-05-31T08:46:59.157Z,12.07
2023-05-31T08:49:31.507Z,11.85
2023-05-31T08:52:01.259Z,12.68
2023-05-31T08:54:32.298Z,13.35
2023-05-31T08:57:03.742Z,13.08
2023-05-31T08:59:34.897Z,11.57
2023-05-31T09:02:07.084Z,11.57
2023-05-31T09:07:06.935Z,13.32
2023-05-31T09:09:37.348Z,12.35
2023-05-31T09:12:07.321Z,12.82
2023-05-31T09:14:37.186Z,11.60
2023-05-31T09:17:07.486Z,12.45
2023-05-31T09:19:38.536Z,13.20
2023-05-31T09:22:08.639Z,12.37
2023-05-31T09:24:39.985Z,12.43
2023-05-31T09:27:09.770Z,12.35
2023-05-31T09:29:46.494Z,12.18
2023-05-31T09:32:16.111Z,12.35
2023-05-31T09:34:46.670Z,12.50
2023-05-31T09:37:26.917Z,12.45
2023-05-31T09:39:58.918Z,11.03
2023-05-31T09:42:30.519Z,13.38
2023-05-31T09:45:02.738Z,11.17
2023-05-31T09:47:32.379Z,12.15
2023-05-31T09:50:06.052Z,11.75
2023-05-31T09:52:41.923Z,11.00
2023-05-31T09:55:14.502Z,11.60
2023-05-31T09:57:47.614Z,11.88
2023-05-31T10:00:20.256Z,11.35
2023-05-31T10:02:57.004Z,11.10
2023-05-31T10:05:27.859Z,11.03
2023-05-31T10:07:58.199Z,10.60
2023-05-31T10:10:31.769Z,10.90
2023-05-31T10:13:04.513Z,12.07
2023-05-31T10:18:17.450Z,10.72
2023-05-31T10:20:49.825Z,10.55
2023-05-31T10:23:25.818Z,11.25
2023-05-31T10:26:02.702Z,10.28
2023-05-31T10:28:35.469Z,10.43
2023-05-31T10:31:06.634Z,10.28
2023-05-31T10:33:37.319Z,10.03
2023-05-31T10:36:07.617Z,9.60
2023-05-31T10:38:46.458Z,9.20
2023-05-31T10:43:54.504Z,8.80
2023-05-31T10:46:28.989Z,9.03
2023-05-31T10:51:48.186Z,9.40
2023-05-31T10:54:22.904Z,10.00
2023-05-31T10:57:01.223Z,9.70
2023-05-31T10:59:46.126Z,8.75
2023-05-31T11:02:20.100Z,8.63
2023-05-31T11:04:51.156Z,8.63
2023-05-31T11:07:23.897Z,9.43
2023-05-31T11:09:58.283Z,9.63
2023-05-31T11:12:40.956Z,9.03
2023-05-31T11:15:17.544Z,9.28
2023-05-31T11:18:01.151Z,8.35
2023-05-31T11:20:31.535Z,9.03
2023-05-31T11:23:20.850Z,8.78
2023-05-31T11:26:12.298Z,8.85
2023-05-31T11:28:54.390Z,8.25
2023-05-31T11:31:59.833Z,8.20
2023-05-31T11:34:32.712Z,7.78
2023-05-31T11:37:05.479Z,7.83
2023-05-31T11:39:35.305Z,7.87
2023-05-31T11:42:15.882Z,8.05
2023-05-31T11:44:48.401Z,8.08
2023-05-31T11:47:22.803Z,7.40
2023-05-31T11:49:52.642Z,7.50
2023-05-31T11:52:23.074Z,7.72
2023-05-31T11:54:54.975Z,7.53
2023-05-31T11:57:27.761Z,7.30
2023-05-31T12:00:09.176Z,7.35
2023-05-31T12:02:39.435Z,7.17
2023-05-31T12:05:14.155Z,7.33
2023-05-31T12:07:44.420Z,7.22
2023-05-31T12:10:14.283Z,7.47
2023-05-31T12:12:46.215Z,7.74
2023-05-31T12:15:18.903Z,7.08
2023-05-31T12:17:49.418Z,7.85
2023-05-31T12:20:19.565Z,7.33
2023-05-31T12:22:49.572Z,6.78
2023-05-31T12:25:19.340Z,7.00
2023-05-31T12:27:48.854Z,8.03
2023-05-31T12:40:25.425Z,6.72
2023-05-31T12:42:59.084Z,7.30
2023-05-31T12:45:29.411Z,6.45
2023-05-31T12:48:00.337Z,6.43
2023-05-31T12:50:32.886Z,6.30
2023-05-31T12:55:38.564Z,6.47
2023-05-31T12:58:08.176Z,6.62
2023-05-31T13:00:37.804Z,6.33
2023-05-31T13:03:09.126Z,6.70
2023-05-31T13:05:38.695Z,6.50
2023-05-31T13:09:42.265Z,5.78
2023-05-31T13:12:11.877Z,6.97
2023-05-31T13:14:41.676Z,6.50
2023-05-31T13:17:12.025Z,6.35
2023-05-31T13:19:44.780Z,7.00
2023-05-31T13:22:14.522Z,9.13
2023-05-31T13:24:45.120Z,6.06
2023-05-31T13:27:14.764Z,5.28
2023-05-31T13:29:44.541Z,4.70
2023-05-31T13:32:15.021Z,3.83
2023-05-31T13:34:44.707Z,3.60
2023-05-31T13:37:14.456Z,3.17
2023-05-31T13:39:47.133Z,3.33
2023-05-31T13:44:45.450Z,3.77
2023-05-31T13:47:15.245Z,3.52
2023-05-31T13:52:15.430Z,3.83
2023-05-31T13:54:45.905Z,3.60
2023-05-31T13:57:15.691Z,4.15
2023-05-31T13:59:45.263Z,3.90
2023-05-31T14:02:16.297Z,3.90
2023-05-31T14:04:46.887Z,3.70
2023-05-31T14:07:16.784Z,4.62
2023-05-31T14:09:46.384Z,3.85
2023-05-31T14:12:15.981Z,3.55
2023-05-31T14:14:45.643Z,3.30
2023-05-31T14:17:15.650Z,3.95
2023-05-31T14:19:45.173Z,3.75
2023-05-31T14:22:15.062Z,3.60
2023-05-31T14:24:45.456Z,3.70
2023-05-31T14:27:18.801Z,3.52
2023-05-31T14:29:49.104Z,3.05
2023-05-31T14:32:20.453Z,3.17
2023-05-31T14:34:51.039Z,3.45
2023-05-31T14:37:27.105Z,3.72
2023-05-31T14:39:55.035Z,4.00
2023-05-31T14:42:25.122Z,3.52
2023-05-31T14:44:56.302Z,3.37
2023-05-31T14:47:25.835Z,3.20
2023-05-31T14:49:55.421Z,3.40
2023-05-31T14:52:25.100Z,3.15
2023-05-31T14:54:54.611Z,3.35
2023-05-31T14:57:26.942Z,3.02
2023-05-31T14:59:56.891Z,3.72
2023-05-31T15:02:28.541Z,3.15
2023-05-31T15:04:59.038Z,3.27
2023-05-31T15:07:28.551Z,3.50
2023-05-31T15:09:58.092Z,3.03
2023-05-31T15:12:28.649Z,3.02
2023-05-31T15:14:58.248Z,2.87
2023-05-31T15:17:28.053Z,3.30
2023-05-31T15:20:00.492Z,3.27
2023-05-31T15:22:29.217Z,3.30
2023-05-31T15:24:58.979Z,3.25
2023-05-31T15:27:28.525Z,3.27
2023-05-31T15:29:58.040Z,3.55
2023-05-31T15:32:28.824Z,3.27
2023-05-31T15:34:58.411Z,3.08
2023-05-31T15:37:29.361Z,2.83
2023-05-31T15:39:58.884Z,3.20
2023-05-31T15:42:28.683Z,3.40
2023-05-31T15:44:58.333Z,3.20
2023-05-31T15:47:27.953Z,3.00
2023-05-31T15:50:00.693Z,3.37
2023-05-31T15:54:59.220Z,3.00
2023-05-31T15:57:28.871Z,3.05
2023-05-31T15:59:58.401Z,3.00
2023-05-31T16:02:28.877Z,3.35
2023-05-31T16:04:58.515Z,2.72
2023-05-31T16:07:28.981Z,3.33
2023-05-31T16:09:58.622Z,2.83
2023-05-31T16:12:28.177Z,2.90
2023-05-31T16:14:59.408Z,3.50
2023-05-31T16:17:29.400Z,3.15
2023-05-31T16:19:59.026Z,3.20
2023-05-31T16:22:28.821Z,2.72
2023-05-31T16:24:58.425Z,2.90
2023-05-31T16:27:28.062Z,2.80
2023-05-31T16:29:57.599Z,2.98
2023-05-31T16:32:27.142Z,3.55
2023-05-31T16:34:56.889Z,3.60
2023-05-31T16:37:26.419Z,2.70
2023-05-31T16:39:55.962Z,4.60
2023-05-31T16:42:25.734Z,5.03
2023-05-31T16:44:57.236Z,4.00
2023-05-31T16:47:27.143Z,4.30
2023-05-31T16:49:56.888Z,4.40
2023-05-31T16:52:26.575Z,3.90
2023-05-31T16:54:56.099Z,4.17
2023-05-31T16:57:25.750Z,4.65
2023-05-31T16:59:55.575Z,4.22
2023-05-31T17:02:25.123Z,4.15
2023-05-31T17:04:54.782Z,4.10
2023-05-31T17:07:24.337Z,3.98
2023-05-31T17:09:54.080Z,4.20
2023-05-31T17:12:23.796Z,4.62
2023-05-31T17:14:53.640Z,4.83
2023-05-31T17:17:23.267Z,4.78
2023-05-31T17:19:53.580Z,4.37
2023-05-31T17:22:23.170Z,4.53
2023-05-31T17:24:52.912Z,4.30
2023-05-31T17:27:22.436Z,4.30
2023-05-31T17:29:52.027Z,3.92
2023-05-31T17:32:23.335Z,4.00
2023-05-31T17:34:52.915Z,4.20
2023-05-31T17:37:22.522Z,3.60
2023-05-31T17:39:52.307Z,4.27
2023-05-31T17:42:23.472Z,4.97
2023-05-31T17:44:53.440Z,4.12
2023-05-31T17:47:23.235Z,4.70
2023-05-31T17:49:52.920Z,5.70
2023-05-31T17:52:22.468Z,6.03
2023-05-31T17:54:52.052Z,6.17
2023-05-31T17:57:21.650Z,6.05
2023-05-31T17:59:51.178Z,5.70
2023-05-31T18:02:20.752Z,5.00
2023-05-31T18:04:50.272Z,7.35
2023-05-31T18:07:20.454Z,5.50
2023-05-31T18:09:51.036Z,5.60
2023-05-31T18:12:20.564Z,5.87
2023-05-31T18:14:51.494Z,5.67
2023-05-31T18:17:23.626Z,6.53
2023-05-31T18:19:53.205Z,5.77
2023-05-31T18:22:24.912Z,5.92
2023-05-31T18:24:54.506Z,5.85
2023-05-31T18:27:24.883Z,8.20
2023-05-31T18:29:54.473Z,6.35
2023-05-31T18:32:25.376Z,7.05
2023-05-31T18:34:56.733Z,6.80
2023-05-31T18:37:27.405Z,6.37
2023-05-31T18:39:57.590Z,5.43
2023-05-31T18:42:30.285Z,5.60
2023-05-31T18:45:01.985Z,6.53
2023-05-31T18:47:33.526Z,5.93
2023-05-31T18:50:03.622Z,6.83
2023-05-31T18:52:33.142Z,6.25
2023-05-31T18:55:02.668Z,6.65
2023-05-31T18:57:32.265Z,6.60
2023-05-31T19:00:01.932Z,6.22
2023-05-31T19:02:32.821Z,6.35
2023-05-31T19:05:02.514Z,6.55
2023-05-31T19:07:32.148Z,6.75
2023-05-31T19:10:01.738Z,6.47
2023-05-31T19:12:32.279Z,6.78
2023-05-31T19:15:02.740Z,5.92
2023-05-31T19:17:33.600Z,6.87
2023-05-31T19:20:04.951Z,6.20
2023-05-31T19:22:40.551Z,6.20
2023-05-31T19:25:10.444Z,5.95
2023-05-31T19:27:39.970Z,6.80
2023-05-31T19:30:09.858Z,6.67
2023-05-31T19:32:41.223Z,6.33
2023-05-31T19:35:12.036Z,6.03
2023-05-31T19:37:43.593Z,5.75
2023-05-31T19:40:13.645Z,6.37
2023-05-31T19:42:45.136Z,6.70
2023-05-31T19:45:14.669Z,6.65
2023-05-31T19:47:44.771Z,6.22
2023-05-31T19:50:14.576Z,6.15
2023-05-31T19:52:49.244Z,6.92
2023-05-31T19:55:18.857Z,6.85
2023-05-31T19:57:48.448Z,6.67
2023-05-31T20:00:18.401Z,6.15
2023-05-31T20:02:48.285Z,6.60
2023-05-31T20:05:18.538Z,5.92
2023-05-31T20:07:49.476Z,6.20
2023-05-31T20:10:20.068Z,6.03
2023-05-31T20:12:50.069Z,7.08
2023-05-31T20:15:19.577Z,6.75
2023-05-31T20:17:49.669Z,6.58
2023-05-31T20:20:19.968Z,6.40
2023-05-31T20:22:49.622Z,6.75
2023-05-31T20:25:19.155Z,6.87
2023-05-31T20:27:48.768Z,6.75
2023-05-31T20:30:18.457Z,6.85
2023-05-31T20:32:48.001Z,6.42
2023-05-31T20:35:17.766Z,6.92
2023-05-31T20:37:48.944Z,7.53
2023-05-31T20:40:18.628Z,7.08
2023-05-31T20:42:48.153Z,6.83
2023-05-31T20:45:17.685Z,6.75
2023-05-31T20:47:47.437Z,6.70
2023-05-31T20:50:17.091Z,6.35
2023-05-31T20:52:46.702Z,6.37
2023-05-31T20:55:17.229Z,6.53
2023-05-31T20:57:47.204Z,6.67
2023-05-31T21:00:19.663Z,6.83
2023-05-31T21:02:49.376Z,6.50
2023-05-31T21:05:19.760Z,6.35
2023-05-31T21:07:49.299Z,6.20
2023-05-31T21:10:19.221Z,6.17
2023-05-31T21:12:48.757Z,6.58
2023-05-31T21:15:19.128Z,6.45
2023-05-31T21:17:53.675Z,6.37
2023-05-31T21:20:23.301Z,6.20
2023-05-31T21:22:54.515Z,6.78
2023-05-31T21:25:26.909Z,6.72
2023-05-31T21:27:58.033Z,6.33
2023-05-31T21:30:28.002Z,5.92
2023-05-31T21:32:57.571Z,5.92
2023-05-31T21:35:28.577Z,6.78
2023-05-31T21:37:58.169Z,6.25
2023-05-31T21:40:29.390Z,6.20
2023-05-31T21:42:59.433Z,5.70
2023-05-31T21:45:28.995Z,6.80
2023-05-31T21:47:58.632Z,5.35
2023-05-31T21:50:29.267Z,5.85
2023-05-31T21:52:59.030Z,6.12
2023-05-31T21:55:28.550Z,6.28
2023-05-31T21:57:58.095Z,6.17
2023-05-31T22:00:27.692Z,6.22
